Aledo, IL (61231)

1:35 AM CDT on August 31, 2016 (GMT -0500)
NW Aledo Illinois | | Change Station
Active Advisory: Flood Warning Active Notice: Local Storm Report

Elev 720 ft 41.21 °N, 90.76 °W | Updated 1 minute ago

Clear
Clear
72.3 °F
Feels Like 72.3 °F
N
0.0
Wind Variable Wind from NW
Gusts 0.0 mph

Today
High -- | Low -- °F
--% Chance of Precip.
Yesterday
High -- | Low -- °F
Precip. -- in
Pressure 30.07 in
Visibility 9.0 miles
Clouds Clear
Dew Point 70 °F
Humidity 93%
Rainfall 0.00 in
Snow Depth Not available.
6:29 AM 7:36 PM
Waning Crescent, 1% visible
METAR KMLI 310552Z 00000KT 9SM CLR 22/21 A3009 RMK AO2 SLP183 60000 T02220211 10239 20222 403000211 53002
Pressure 30.07 in
Visibility 9.0 miles
Clouds Clear
Dew Point 70 °F
Humidity 93%
Rainfall 0.00 in
Snow Depth Not available.
6:29 AM 7:36 PM
Waning Crescent, 1% visible
METAR KMLI 310552Z 00000KT 9SM CLR 22/21 A3009 RMK AO2 SLP183 60000 T02220211 10239 20222 403000211 53002

10-Day Weather Forecast

Almanac

Astronomy

Aug. 31, 2016 Rise Set
Actual Time
Civil Twilight
Nautical Twilight
Astronomical Twilight
Moon
Length of Visible Light
Length of Day
Tomorrow will be .
, % of the Moon is Illuminated

Today's Extremes

State Highs State Lows

Community

WunderPhotos

Upload Photos

1,936,040 photos uploaded!

WunderBlog® & News

Nearby

Air Quality

  Air Quality AQ Index Pollutant
Not available.

Snow Depth

Station Depth Elevation

Earthquake Activity

City Distance Mag. Time & Date
Minimum magnitude displayed is 2.5.

Coastal Water Temperatures

Place Temperature

Stations

Nearby Weather Stations

Station Location Temp. Windchill Dew Point Humidity Wind Precip. Elev Updated Type
                   

Watches & Warnings

Flood Warning
Issued: 8:37 PM CDT Aug. 30, 2016 – National Weather Service

... Flood Warning now in effect until Saturday morning...

The Flood Warning continues for
the Mississippi River at Keithsburg.
* Until Saturday morning.
* At 7:30 PM Tuesday the stage was 14.0 feet... and rising.
* Flood stage is 14 feet.
* Minor flooding is occurring.
* Forecast... rise to 14.4 feet Thursday morning. Fall below flood
stage Saturday morning.
* Impact... at 14.5 feet... water affects low lying areas in Oquawka.


Lat... Lon 4116 9097 4117 9106 4094 9099 4091 9094
      4108 9091




837 PM CDT Tue Aug 30 2016

... Flood Warning remains in effect until Friday evening...

The Flood Warning continues for
the Mississippi River at New Boston ld17.
* Until Friday evening.
* At 6:00 PM Tuesday the stage was 14.9 feet... and rising.
* Flood stage is 15 feet.
* No flooding is occurring and minor flooding is forecast.
* Forecast... rise above flood stage Wednesday morning... and continue
rising to 15.3 feet Thursday. Fall below flood stage Friday
evening.



Lat... Lon 4124 9108 4124 9114 4119 9111 4117 9106
      4116 9097